createdAt,value
2018-06-25T00:02:06.717Z,14.20
2018-06-25T00:04:36.248Z,21.60
2018-06-25T00:07:06.049Z,22.47
2018-06-25T00:09:35.737Z,15.73
2018-06-25T00:12:05.980Z,18.17
2018-06-25T00:14:35.577Z,16.47
2018-06-25T00:17:05.438Z,16.37
2018-06-25T00:19:35.146Z,20.47
2018-06-25T00:22:04.725Z,16.80
2018-06-25T00:24:34.226Z,23.10
2018-06-25T00:27:03.780Z,23.23
2018-06-25T00:29:33.307Z,13.90
2018-06-25T00:32:02.828Z,16.50
2018-06-25T00:34:33.351Z,15.00
2018-06-25T00:37:02.864Z,16.57
2018-06-25T00:39:32.372Z,22.20
2018-06-25T00:42:01.964Z,17.17
2018-06-25T00:44:31.492Z,14.07
2018-06-25T00:47:01.009Z,24.13
2018-06-25T00:49:30.527Z,16.83
2018-06-25T00:52:00.048Z,20.00
2018-06-25T00:54:29.570Z,16.60
2018-06-25T00:56:59.057Z,20.17
2018-06-25T00:59:45.397Z,18.50
2018-06-25T01:02:14.933Z,15.33
2018-06-25T01:04:44.433Z,23.13
2018-06-25T01:07:13.950Z,14.87
2018-06-25T01:09:43.596Z,16.00
2018-06-25T01:12:13.447Z,13.27
2018-06-25T01:14:43.392Z,22.17
2018-06-25T01:17:12.978Z,15.30
2018-06-25T01:19:42.438Z,17.20
2018-06-25T01:22:12.012Z,19.63
2018-06-25T01:24:41.530Z,13.87
2018-06-25T01:27:11.493Z,17.40
2018-06-25T01:29:42.077Z,12.67
2018-06-25T01:32:11.573Z,19.47
2018-06-25T01:34:41.129Z,24.73
2018-06-25T01:37:10.751Z,17.23
2018-06-25T01:39:40.322Z,20.57
2018-06-25T01:42:09.842Z,21.97
2018-06-25T01:44:39.362Z,22.97
2018-06-25T01:47:08.926Z,16.17
2018-06-25T01:49:38.446Z,18.00
2018-06-25T01:52:08.151Z,20.10
2018-06-25T01:54:37.681Z,18.20
2018-06-25T01:57:08.048Z,18.37
2018-06-25T01:59:37.630Z,18.50
2018-06-25T02:02:07.144Z,25.83
2018-06-25T02:04:36.738Z,19.53
2018-06-25T02:07:06.574Z,22.87
2018-06-25T02:09:35.017Z,17.57
2018-06-25T02:12:04.530Z,16.20
2018-06-25T02:14:34.130Z,19.17
2018-06-25T02:17:03.694Z,21.10
2018-06-25T02:19:33.256Z,20.67
2018-06-25T02:22:02.992Z,18.60
2018-06-25T02:24:32.499Z,24.13
2018-06-25T02:27:02.568Z,21.83
2018-06-25T02:29:32.103Z,22.47
2018-06-25T02:32:01.628Z,17.40
2018-06-25T02:34:31.328Z,16.00
2018-06-25T02:37:00.835Z,14.33
2018-06-25T02:39:30.328Z,23.07
2018-06-25T02:41:59.862Z,13.80
2018-06-25T02:44:29.345Z,22.13
2018-06-25T02:46:58.892Z,18.57
2018-06-25T02:49:28.406Z,22.83
2018-06-25T02:51:58.027Z,18.33
2018-06-25T02:54:27.646Z,17.83
2018-06-25T02:57:03.373Z,16.30
2018-06-25T02:59:32.928Z,19.00
2018-06-25T03:02:02.524Z,14.97
2018-06-25T03:04:32.170Z,21.33
2018-06-25T03:07:01.920Z,18.60
2018-06-25T03:09:31.488Z,19.90
2018-06-25T03:12:01.065Z,15.60
2018-06-25T03:14:30.665Z,15.70
2018-06-25T03:17:00.193Z,15.70
2018-06-25T03:19:29.823Z,17.57
2018-06-25T03:21:59.361Z,15.67
2018-06-25T03:24:28.927Z,18.70
2018-06-25T03:26:58.432Z,14.67
2018-06-25T03:29:27.946Z,21.70
2018-06-25T03:31:57.439Z,22.33
2018-06-25T03:34:27.111Z,16.63
2018-06-25T03:36:57.247Z,17.63
2018-06-25T03:39:26.927Z,17.80
2018-06-25T03:41:56.646Z,21.60
2018-06-25T03:44:26.180Z,17.37
2018-06-25T03:46:55.822Z,16.97
2018-06-25T03:49:25.330Z,18.83
2018-06-25T03:51:54.978Z,17.43
2018-06-25T03:54:24.530Z,18.63
2018-06-25T03:56:53.990Z,12.03
2018-06-25T03:59:24.254Z,15.80
2018-06-25T04:01:54.392Z,18.23
2018-06-25T04:04:23.909Z,17.10
2018-06-25T04:06:53.439Z,16.90
2018-06-25T04:09:23.027Z,23.63
2018-06-25T04:11:52.609Z,18.60
2018-06-25T04:14:22.102Z,20.67
2018-06-25T04:16:51.651Z,16.27
2018-06-25T04:19:21.243Z,20.23
2018-06-25T04:21:50.721Z,19.83
2018-06-25T04:24:20.213Z,17.50
2018-06-25T04:26:49.717Z,14.70
2018-06-25T04:29:19.209Z,15.70
2018-06-25T04:31:48.891Z,19.57
2018-06-25T04:34:18.339Z,19.97
2018-06-25T04:36:47.805Z,20.90
2018-06-25T04:39:17.309Z,15.13
2018-06-25T04:41:46.869Z,18.90
2018-06-25T04:44:16.387Z,15.00
2018-06-25T04:46:45.861Z,17.47
2018-06-25T04:49:15.385Z,16.93
2018-06-25T04:51:44.923Z,16.97
2018-06-25T04:54:14.173Z,19.43
2018-06-25T04:56:43.818Z,17.13
2018-06-25T04:59:13.321Z,22.80
2018-06-25T05:01:42.987Z,25.33
2018-06-25T05:04:12.463Z,14.80
2018-06-25T05:06:42.010Z,14.13
2018-06-25T05:09:11.823Z,18.60
2018-06-25T05:11:41.729Z,15.03
2018-06-25T05:14:11.235Z,13.43
2018-06-25T05:16:40.771Z,15.30
2018-06-25T05:19:10.241Z,16.17
2018-06-25T05:21:39.753Z,17.63
2018-06-25T05:24:09.211Z,15.40
2018-06-25T05:26:38.741Z,15.53
2018-06-25T05:29:08.284Z,15.80
2018-06-25T05:31:37.838Z,16.33
2018-06-25T05:34:07.341Z,14.00
2018-06-25T05:36:36.917Z,9.63
2018-06-25T05:39:10.333Z,11.23
2018-06-25T05:41:40.244Z,13.30
2018-06-25T05:44:09.725Z,12.83
2018-06-25T05:46:38.958Z,9.30
2018-06-25T05:49:08.727Z,11.10
2018-06-25T05:51:39.193Z,15.33
2018-06-25T05:54:08.739Z,11.60
2018-06-25T05:56:38.239Z,13.40
2018-06-25T05:59:07.763Z,7.57
2018-06-25T06:01:37.383Z,7.33
2018-06-25T06:04:07.014Z,12.83
2018-06-25T06:06:36.505Z,11.60
2018-06-25T06:09:08.742Z,15.17
2018-06-25T06:11:38.398Z,8.30
2018-06-25T06:14:08.008Z,13.17
2018-06-25T06:16:37.481Z,11.00
2018-06-25T06:19:07.106Z,9.70
2018-06-25T06:21:36.674Z,16.20
2018-06-25T06:24:06.231Z,13.03
2018-06-25T06:26:35.695Z,10.60
2018-06-25T06:29:05.261Z,11.27
2018-06-25T06:31:35.040Z,10.30
2018-06-25T06:34:04.605Z,9.93
2018-06-25T06:36:34.151Z,8.97
2018-06-25T06:39:04.014Z,14.13
2018-06-25T06:41:33.557Z,10.87
2018-06-25T06:44:03.046Z,12.63
2018-06-25T06:46:32.523Z,17.63
2018-06-25T06:49:02.207Z,16.20
2018-06-25T06:51:32.187Z,11.80
2018-06-25T06:54:01.981Z,14.47
2018-06-25T06:56:31.509Z,14.40
2018-06-25T06:59:01.016Z,17.67
2018-06-25T07:01:30.969Z,11.70
2018-06-25T07:04:00.482Z,14.77
2018-06-25T07:06:30.055Z,15.27
2018-06-25T07:08:59.609Z,12.27
2018-06-25T07:11:29.151Z,9.10
2018-06-25T07:13:58.638Z,11.70
2018-06-25T07:16:28.124Z,12.10
2018-06-25T07:18:57.739Z,10.70
2018-06-25T07:21:27.260Z,9.17
2018-06-25T07:23:56.840Z,10.10
2018-06-25T07:26:26.789Z,11.27
2018-06-25T07:28:57.117Z,10.60
2018-06-25T07:31:26.669Z,12.70
2018-06-25T07:33:56.233Z,15.83
2018-06-25T07:36:25.732Z,10.30
2018-06-25T07:38:55.260Z,10.10
2018-06-25T07:41:24.769Z,9.37
2018-06-25T07:43:54.762Z,7.90
2018-06-25T07:46:24.300Z,6.93
2018-06-25T07:48:54.096Z,11.20
2018-06-25T07:51:23.629Z,10.47
2018-06-25T07:53:53.182Z,7.07
2018-06-25T07:56:22.753Z,11.90
2018-06-25T07:58:52.261Z,6.47
2018-06-25T08:01:21.905Z,12.10
2018-06-25T08:03:51.537Z,6.40
2018-06-25T08:06:21.070Z,11.33
2018-06-25T08:08:50.569Z,10.17
2018-06-25T08:11:20.647Z,12.60
2018-06-25T08:13:50.163Z,9.97
2018-06-25T08:16:19.827Z,14.47
2018-06-25T08:18:49.367Z,9.73
2018-06-25T08:21:18.902Z,15.50
2018-06-25T08:23:48.938Z,11.67
2018-06-25T08:26:18.450Z,8.23
2018-06-25T08:28:47.993Z,15.50
2018-06-25T08:31:17.600Z,8.43
2018-06-25T08:33:47.993Z,6.87
2018-06-25T08:36:17.611Z,9.57
2018-06-25T08:38:47.159Z,6.73
2018-06-25T08:41:17.422Z,8.87
2018-06-25T08:43:47.213Z,11.97
2018-06-25T08:46:17.479Z,13.43
2018-06-25T08:48:47.833Z,13.93
2018-06-25T08:51:18.108Z,14.27
2018-06-25T08:53:47.743Z,10.57
2018-06-25T08:56:17.425Z,11.63
2018-06-25T08:58:46.942Z,15.10
2018-06-25T09:01:16.552Z,11.37
2018-06-25T09:03:45.803Z,13.60
2018-06-25T09:06:15.287Z,12.50
2018-06-25T09:08:44.793Z,9.47
2018-06-25T09:11:14.239Z,12.90
2018-06-25T09:13:43.843Z,12.03
2018-06-25T09:16:13.313Z,9.43
2018-06-25T09:18:42.825Z,7.07
2018-06-25T09:21:12.331Z,6.33
2018-06-25T09:23:41.954Z,9.73
2018-06-25T09:26:11.502Z,10.17
2018-06-25T09:28:40.995Z,13.23
2018-06-25T09:31:10.495Z,13.50
2018-06-25T09:33:39.996Z,12.43
2018-06-25T09:36:09.246Z,9.73
2018-06-25T09:38:38.907Z,9.07
2018-06-25T09:41:08.485Z,9.03
2018-06-25T09:43:37.998Z,12.33
2018-06-25T09:46:07.845Z,8.63
2018-06-25T09:48:37.396Z,8.70
2018-06-25T09:51:06.908Z,11.27
2018-06-25T09:53:36.601Z,13.53
2018-06-25T09:56:06.787Z,10.47
2018-06-25T09:58:37.106Z,8.40
2018-06-25T10:01:09.963Z,8.23
2018-06-25T10:03:39.806Z,7.53
2018-06-25T10:06:09.338Z,8.33
2018-06-25T10:08:39.190Z,7.00
2018-06-25T10:11:08.811Z,10.80
2018-06-25T10:13:38.377Z,8.87
2018-06-25T10:16:08.014Z,7.30
2018-06-25T10:18:37.549Z,15.60
2018-06-25T10:21:07.171Z,10.23
2018-06-25T10:23:36.373Z,5.50
2018-06-25T10:26:05.890Z,5.23
2018-06-25T10:28:35.445Z,5.60
2018-06-25T10:31:04.960Z,7.20
2018-06-25T10:33:34.473Z,7.30
2018-06-25T10:36:04.431Z,7.33
2018-06-25T10:38:35.105Z,5.00
2018-06-25T10:41:04.634Z,7.97
2018-06-25T10:43:34.148Z,6.67
2018-06-25T10:46:03.636Z,7.10
2018-06-25T10:48:34.091Z,7.70
2018-06-25T10:51:04.504Z,5.50
2018-06-25T10:53:34.099Z,7.83
2018-06-25T10:56:04.586Z,5.27
2018-06-25T10:58:33.779Z,6.27
2018-06-25T11:01:03.532Z,3.13
2018-06-25T11:03:33.089Z,4.83
2018-06-25T11:06:02.562Z,5.70
2018-06-25T11:08:32.039Z,3.83
2018-06-25T11:11:01.570Z,3.70
2018-06-25T11:13:31.119Z,4.13
2018-06-25T11:16:00.590Z,3.73
2018-06-25T11:18:30.108Z,6.90
2018-06-25T11:20:59.726Z,3.47
2018-06-25T11:23:30.030Z,3.83
2018-06-25T11:25:59.536Z,3.73
2018-06-25T11:28:29.048Z,4.23
2018-06-25T11:30:58.474Z,6.53
2018-06-25T11:33:27.901Z,3.50
2018-06-25T11:35:57.536Z,5.03
2018-06-25T11:38:26.722Z,10.17
2018-06-25T11:40:56.239Z,7.80
2018-06-25T11:43:25.866Z,9.60
2018-06-25T11:45:55.540Z,8.63
2018-06-25T11:48:25.057Z,8.97
2018-06-25T11:50:54.579Z,4.00
2018-06-25T11:53:24.094Z,4.67
2018-06-25T11:55:53.586Z,4.07
2018-06-25T11:58:23.152Z,4.40
2018-06-25T12:00:53.221Z,5.30
2018-06-25T12:03:22.761Z,5.23
2018-06-25T12:05:52.058Z,8.40
2018-06-25T12:08:21.592Z,5.37
2018-06-25T12:10:51.065Z,13.70
2018-06-25T12:13:20.572Z,6.40
2018-06-25T12:15:50.006Z,4.93
2018-06-25T12:18:19.619Z,7.30
2018-06-25T12:20:49.157Z,4.20
2018-06-25T12:23:19.373Z,5.10
2018-06-25T12:25:48.854Z,6.27
2018-06-25T12:28:18.302Z,3.30
2018-06-25T12:30:47.743Z,4.97
2018-06-25T12:33:17.269Z,5.43
2018-06-25T12:35:46.736Z,3.30
2018-06-25T12:38:16.226Z,5.03
2018-06-25T12:40:45.683Z,5.37
2018-06-25T12:43:15.377Z,3.77
2018-06-25T12:45:44.810Z,5.23
2018-06-25T12:48:14.327Z,5.03
2018-06-25T12:50:43.546Z,5.40
2018-06-25T12:53:13.261Z,4.60
2018-06-25T12:55:42.869Z,5.60
2018-06-25T12:58:12.318Z,4.27
2018-06-25T13:00:41.780Z,8.03
2018-06-25T13:03:11.441Z,4.50
2018-06-25T13:05:40.966Z,6.50
2018-06-25T13:08:10.558Z,8.30
2018-06-25T13:10:41.197Z,4.83
2018-06-25T13:13:10.672Z,6.87
2018-06-25T13:15:40.242Z,4.50
2018-06-25T13:18:09.808Z,4.47
2018-06-25T13:20:39.757Z,7.40
2018-06-25T13:23:10.571Z,6.33
2018-06-25T13:25:40.082Z,6.60
2018-06-25T13:28:09.566Z,5.77
2018-06-25T13:30:39.589Z,5.93
2018-06-25T13:33:10.722Z,7.37
2018-06-25T13:35:43.547Z,9.80
2018-06-25T13:38:18.072Z,10.30
2018-06-25T13:40:53.445Z,13.50
2018-06-25T13:43:25.871Z,16.07
2018-06-25T13:45:58.615Z,15.53
2018-06-25T13:48:32.053Z,6.77
2018-06-25T13:51:02.198Z,4.10
2018-06-25T13:53:34.034Z,10.10
2018-06-25T13:56:07.611Z,8.53
2018-06-25T13:58:42.661Z,7.87
2018-06-25T14:01:13.436Z,9.83
2018-06-25T14:03:47.934Z,11.03
2018-06-25T14:06:20.164Z,10.50
2018-06-25T14:08:52.189Z,12.20
2018-06-25T14:11:23.716Z,13.07
2018-06-25T14:13:53.249Z,5.20
2018-06-25T14:16:22.904Z,6.27
2018-06-25T14:18:52.440Z,8.97
2018-06-25T14:21:22.026Z,10.97
2018-06-25T14:23:56.842Z,4.60
2018-06-25T14:26:30.573Z,12.50
2018-06-25T14:29:00.101Z,4.13
2018-06-25T14:31:29.819Z,3.73
2018-06-25T14:34:05.370Z,7.30
2018-06-25T14:36:35.986Z,4.43
2018-06-25T14:39:10.054Z,5.97
2018-06-25T14:41:39.740Z,5.17
2018-06-25T14:44:09.424Z,5.80
2018-06-25T14:46:39.277Z,4.30
2018-06-25T14:49:09.471Z,5.77
2018-06-25T14:51:39.170Z,9.87
2018-06-25T14:54:09.176Z,4.57
2018-06-25T14:56:39.122Z,4.10
2018-06-25T14:59:08.644Z,5.77
2018-06-25T15:01:38.337Z,5.43
2018-06-25T15:04:07.943Z,8.00
2018-06-25T15:06:37.497Z,10.87
2018-06-25T15:09:10.708Z,3.67
2018-06-25T15:11:40.255Z,6.73
2018-06-25T15:14:10.836Z,7.23
2018-06-25T15:16:40.834Z,5.37
2018-06-25T15:19:10.494Z,5.17
2018-06-25T15:21:40.104Z,6.60
2018-06-25T15:24:13.966Z,5.30
2018-06-25T15:26:47.535Z,3.80
2018-06-25T15:29:17.188Z,4.67
2018-06-25T15:31:47.254Z,9.03
2018-06-25T15:34:17.032Z,7.70
2018-06-25T15:36:58.168Z,8.70
2018-06-25T15:39:27.913Z,5.13
2018-06-25T15:41:57.570Z,7.60
2018-06-25T15:44:27.858Z,9.93
2018-06-25T15:46:58.501Z,5.30
2018-06-25T15:49:28.651Z,5.03
2018-06-25T15:51:59.383Z,13.63
2018-06-25T15:54:28.924Z,4.73
2018-06-25T15:57:03.508Z,10.10
2018-06-25T15:59:33.300Z,5.27
2018-06-25T16:02:05.607Z,6.77
2018-06-25T16:04:35.527Z,5.10
2018-06-25T16:07:05.928Z,12.57
2018-06-25T16:09:35.546Z,8.10
2018-06-25T16:12:05.358Z,6.93
2018-06-25T16:14:36.016Z,5.97
2018-06-25T16:17:06.029Z,20.50
2018-06-25T16:19:40.521Z,20.13
2018-06-25T16:22:10.384Z,6.57
2018-06-25T16:24:40.011Z,12.03
2018-06-25T16:27:13.153Z,6.53
2018-06-25T16:29:43.698Z,8.40
2018-06-25T16:32:14.857Z,11.40
2018-06-25T16:34:44.908Z,7.93
2018-06-25T16:37:14.486Z,8.37
2018-06-25T16:39:44.280Z,16.13
2018-06-25T16:42:13.754Z,22.60
2018-06-25T16:44:43.444Z,12.90
2018-06-25T16:47:13.174Z,10.13
2018-06-25T16:49:46.318Z,7.97
2018-06-25T16:52:16.373Z,11.03
2018-06-25T16:54:45.940Z,12.53
2018-06-25T16:57:15.440Z,9.37
2018-06-25T16:59:46.170Z,7.53
2018-06-25T17:02:16.319Z,8.33
2018-06-25T17:04:46.162Z,14.27
2018-06-25T17:07:15.844Z,7.00
2018-06-25T17:09:45.659Z,6.63
2018-06-25T17:12:15.246Z,6.47
2018-06-25T17:14:45.087Z,7.50
2018-06-25T17:17:14.970Z,12.30
2018-06-25T17:19:44.564Z,14.03
2018-06-25T17:22:14.405Z,6.90
2018-06-25T17:24:43.989Z,7.33
2018-06-25T17:27:13.493Z,8.73
2018-06-25T17:29:43.428Z,6.70
2018-06-25T17:32:12.874Z,8.23
2018-06-25T17:34:44.027Z,10.17
2018-06-25T17:37:15.525Z,8.00
2018-06-25T17:39:45.526Z,9.90
2018-06-25T17:42:15.130Z,12.27
2018-06-25T17:44:44.757Z,6.57
2018-06-25T17:47:14.259Z,6.67
2018-06-25T17:49:43.963Z,9.03
2018-06-25T17:52:13.434Z,7.70
2018-06-25T17:54:43.051Z,8.03
2018-06-25T17:57:12.600Z,5.13
2018-06-25T17:59:42.103Z,8.20
2018-06-25T18:02:11.807Z,11.43
2018-06-25T18:04:41.309Z,9.30
2018-06-25T18:07:12.393Z,6.73
2018-06-25T18:09:41.905Z,9.93
2018-06-25T18:12:11.766Z,5.83
2018-06-25T18:14:41.328Z,5.90
2018-06-25T18:17:10.763Z,4.63
2018-06-25T18:19:44.343Z,8.20
2018-06-25T18:22:18.776Z,5.77
2018-06-25T18:24:48.291Z,5.20
2018-06-25T18:27:18.075Z,19.50
2018-06-25T18:29:48.639Z,5.07
2018-06-25T18:32:19.032Z,6.07
2018-06-25T18:34:48.539Z,8.90
2018-06-25T18:37:18.052Z,5.33
2018-06-25T18:39:47.576Z,8.07
2018-06-25T18:42:17.099Z,5.20
2018-06-25T18:44:46.583Z,5.40
2018-06-25T18:47:16.079Z,4.53
2018-06-25T18:49:45.565Z,4.50
2018-06-25T18:52:15.143Z,8.23
2018-06-25T18:54:44.622Z,3.53
2018-06-25T18:57:14.288Z,4.40
2018-06-25T18:59:43.761Z,10.60
2018-06-25T19:02:13.268Z,5.23
2018-06-25T19:04:42.831Z,5.13
2018-06-25T19:07:12.368Z,5.10
2018-06-25T19:09:42.186Z,5.10
2018-06-25T19:12:11.764Z,5.80
2018-06-25T19:14:41.341Z,4.60
2018-06-25T19:17:10.926Z,6.40
2018-06-25T19:19:40.491Z,7.10
2018-06-25T19:22:10.482Z,7.47
2018-06-25T19:24:40.854Z,9.60
2018-06-25T19:27:10.488Z,5.27
2018-06-25T19:29:40.194Z,8.10
2018-06-25T19:32:09.691Z,8.50
2018-06-25T19:34:39.165Z,7.70
2018-06-25T19:37:13.290Z,4.50
2018-06-25T19:39:44.022Z,8.77
2018-06-25T19:42:13.616Z,6.60
2018-06-25T19:44:43.220Z,7.63
2018-06-25T19:47:13.472Z,4.17
2018-06-25T19:49:42.991Z,9.67
2018-06-25T19:52:12.505Z,4.77
2018-06-25T19:54:42.034Z,6.00
2018-06-25T19:57:11.549Z,6.70
2018-06-25T19:59:41.064Z,3.90
2018-06-25T20:02:11.051Z,7.20
2018-06-25T20:04:40.794Z,15.17
2018-06-25T20:07:10.825Z,8.00
2018-06-25T20:09:41.274Z,9.43
2018-06-25T20:12:11.598Z,9.20
2018-06-25T20:14:41.520Z,8.87
2018-06-25T20:17:11.013Z,6.57
2018-06-25T20:19:40.633Z,9.30
2018-06-25T20:22:11.751Z,8.93
2018-06-25T20:24:41.392Z,5.70
2018-06-25T20:27:14.419Z,8.77
2018-06-25T20:29:46.425Z,7.60
2018-06-25T20:32:16.055Z,5.97
2018-06-25T20:34:45.691Z,11.13
2018-06-25T20:37:15.465Z,8.00
2018-06-25T20:39:45.264Z,8.47
2018-06-25T20:42:15.489Z,8.40
2018-06-25T20:44:49.798Z,18.13
2018-06-25T20:47:20.098Z,9.87
2018-06-25T20:49:50.387Z,6.20
2018-06-25T20:52:20.171Z,10.80
2018-06-25T20:54:50.767Z,9.80
2018-06-25T20:57:31.037Z,14.00
2018-06-25T21:00:00.800Z,7.20
2018-06-25T21:02:30.528Z,12.77
2018-06-25T21:05:00.381Z,11.60
2018-06-25T21:07:32.338Z,11.03
2018-06-25T21:10:02.027Z,10.33
2018-06-25T21:12:31.645Z,12.73
2018-06-25T21:15:01.253Z,14.43
2018-06-25T21:17:31.194Z,7.70
2018-06-25T21:20:00.812Z,11.27
2018-06-25T21:22:30.407Z,9.13
2018-06-25T21:25:00.018Z,10.80
2018-06-25T21:27:29.663Z,14.70
2018-06-25T21:30:00.369Z,10.20
2018-06-25T21:32:30.105Z,11.33
2018-06-25T21:34:59.721Z,8.43
2018-06-25T21:37:29.373Z,14.47
2018-06-25T21:39:59.021Z,9.43
2018-06-25T21:42:35.155Z,18.17
2018-06-25T21:45:07.013Z,7.97
2018-06-25T21:47:36.733Z,9.40
2018-06-25T21:50:06.651Z,16.20
2018-06-25T21:52:36.408Z,11.40
2018-06-25T21:55:06.302Z,13.83
2018-06-25T21:57:36.103Z,9.80
2018-06-25T22:00:10.351Z,9.57
2018-06-25T22:02:39.947Z,9.93
2018-06-25T22:05:09.781Z,11.93
2018-06-25T22:07:39.517Z,12.27
2018-06-25T22:10:09.221Z,9.40
2018-06-25T22:12:38.989Z,16.70
2018-06-25T22:15:09.135Z,17.47
2018-06-25T22:17:38.697Z,11.70
2018-06-25T22:20:08.225Z,11.17
2018-06-25T22:22:38.296Z,10.63
2018-06-25T22:25:08.175Z,13.20
2018-06-25T22:27:37.869Z,14.50
2018-06-25T22:30:07.491Z,13.77
2018-06-25T22:32:37.201Z,11.63
2018-06-25T22:35:07.058Z,22.47
2018-06-25T22:37:36.845Z,13.20
2018-06-25T22:40:07.151Z,9.27
2018-06-25T22:42:39.233Z,11.03
2018-06-25T22:45:16.069Z,12.33
2018-06-25T22:47:45.931Z,18.77
2018-06-25T22:50:16.397Z,13.70
2018-06-25T22:52:46.993Z,17.90
2018-06-25T22:55:16.752Z,14.93
2018-06-25T22:57:47.410Z,20.87
2018-06-25T23:00:17.421Z,17.93
2018-06-25T23:02:47.293Z,15.63
2018-06-25T23:05:31.924Z,18.87
2018-06-25T23:08:01.931Z,13.77
2018-06-25T23:10:31.816Z,14.33
2018-06-25T23:13:01.664Z,16.00
2018-06-25T23:15:35.147Z,16.00
2018-06-25T23:18:05.208Z,15.07
2018-06-25T23:20:34.757Z,19.93
2018-06-25T23:23:04.415Z,20.27
2018-06-25T23:25:33.944Z,16.73
2018-06-25T23:28:03.533Z,18.80
2018-06-25T23:30:33.007Z,14.60
2018-06-25T23:33:02.862Z,14.17
2018-06-25T23:35:32.885Z,13.37
2018-06-25T23:38:02.987Z,13.70
2018-06-25T23:40:32.593Z,16.10
2018-06-25T23:43:02.170Z,18.57
2018-06-25T23:45:33.957Z,19.50
2018-06-25T23:48:03.451Z,22.30
2018-06-25T23:50:33.110Z,14.10
2018-06-25T23:53:04.241Z,18.50
2018-06-25T23:55:33.765Z,16.60
2018-06-25T23:58:08.419Z,22.23
